Terminal Aerodrome Forecast
Issued by NWS Duluth, MN

Home | Current Version | Previous Version | Text Only | Print | Product List | Glossary On
Versions: 1 2 3 4 5 6 7 8 9 10 11 12 13 14 15 16 17 18 19 20 21 22 23 24 25 26 27 28 29
000
FTUS43 KDLH 222047 AAB
TAFINL
TAF AMD
KINL 222047Z 2221/2318 07007KT P6SM VCTS SCT019CB BKN120
     FM222300 11007KT P6SM VCTS BKN015CB
      TEMPO 2223/2303 4SM -TSRA OVC003CB
     FM230400 15007KT 5SM -SHRA BR VCTS BKN080CB
     FM230600 19007KT 6SM -SHRA BR VCTS BKN060CB WS020/21035KT
     FM230800 VRB04KT 6SM BR BKN008
     FM231200 29006KT P6SM OVC008=

USA.gov is the U.S. government's official web portal to all federal, state and local government web resources and services.